Time;durP1;ratioP1;P1;durP2;ratioP2;P2;SDS_P1;SDS_P2;PMS_P1;PMS_P2;Temp;Humidity;BMP_temperature;BMP_pressure;BME280_temperature;BME280_humidity;BME280_pressure;Samples;Min_cycle;Max_cycle;Signal;HPM_P1;HPM_P2
2024/02/04 00:00:39;;;;;;;;;;;17.50;44.10;;;;;;1567559;74;592;-70
2024/02/04 00:02:41;;;;;;;;;;;17.50;44.00;;;;;;1570987;74;1083;-69
2024/02/04 00:04:43;;;;;;;;;;;17.50;44.00;;;;;;1566770;74;798;-70
2024/02/04 00:06:44;;;;;;;;;;;17.50;44.10;;;;;;1567585;74;737;-70
2024/02/04 00:08:46;;;;;;;;;;;17.50;44.10;;;;;;1568686;74;1592;-69
2024/02/04 00:10:48;;;;;;;;;;;17.50;44.10;;;;;;1571344;74;643;-70
2024/02/04 00:12:50;;;;;;;;;;;17.50;44.00;;;;;;1569669;74;1198;-70
2024/02/04 00:14:52;;;;;;;;;;;17.50;44.10;;;;;;1570373;74;692;-70
2024/02/04 00:16:54;;;;;;;;;;;17.50;44.10;;;;;;1572435;74;1920;-70
2024/02/04 00:18:56;;;;;;;;;;;17.50;44.00;;;;;;1571272;74;707;-70
2024/02/04 00:20:58;;;;;;;;;;;17.50;44.10;;;;;;1569444;74;850;-70
2024/02/04 00:22:59;;;;;;;;;;;17.50;44.10;;;;;;1564722;74;1136;-70
2024/02/04 00:25:04;;;;;;;;;;;17.50;44.10;;;;;;1565127;74;896;-70
2024/02/04 00:27:05;;;;;;;;;;;17.50;44.10;;;;;;1570608;74;1595;-68
2024/02/04 00:29:07;;;;;;;;;;;17.50;44.10;;;;;;1572602;74;721;-69
2024/02/04 00:31:09;;;;;;;;;;;17.50;44.20;;;;;;1573026;74;632;-70
2024/02/04 00:33:11;;;;;;;;;;;17.50;44.20;;;;;;1577277;74;1136;-69
2024/02/04 00:35:13;;;;;;;;;;;17.50;44.10;;;;;;1568130;74;645;-70
2024/02/04 00:37:14;;;;;;;;;;;17.50;44.10;;;;;;1577106;74;1930;-70
2024/02/04 00:39:16;;;;;;;;;;;17.50;44.10;;;;;;1571851;74;725;-70
2024/02/04 00:41:18;;;;;;;;;;;17.50;44.00;;;;;;1568618;74;726;-70
2024/02/04 00:43:20;;;;;;;;;;;17.50;44.10;;;;;;1566878;74;1124;-70
2024/02/04 00:45:23;;;;;;;;;;;17.50;44.10;;;;;;1572166;74;685;-69
2024/02/04 00:47:25;;;;;;;;;;;17.50;44.10;;;;;;1570352;74;752;-70
2024/02/04 00:49:27;;;;;;;;;;;17.50;44.10;;;;;;1573242;74;733;-69
2024/02/04 00:51:30;;;;;;;;;;;17.50;44.10;;;;;;1569547;74;745;-70
2024/02/04 00:53:33;;;;;;;;;;;17.50;44.00;;;;;;1565625;74;1108;-70
2024/02/04 00:55:35;;;;;;;;;;;17.50;44.10;;;;;;1566914;74;721;-70
2024/02/04 00:57:37;;;;;;;;;;;17.60;44.10;;;;;;1572557;74;1923;-70
2024/02/04 00:59:39;;;;;;;;;;;17.50;44.10;;;;;;1566759;74;708;-70
2024/02/04 01:01:42;;;;;;;;;;;17.50;44.10;;;;;;1565326;74;659;-70
2024/02/04 01:03:44;;;;;;;;;;;17.50;44.10;;;;;;1574478;74;1070;-69
2024/02/04 01:05:46;;;;;;;;;;;17.50;44.10;;;;;;1560596;74;701;-70
2024/02/04 01:07:47;;;;;;;;;;;17.50;44.10;;;;;;1571105;74;1457;-69
2024/02/04 01:09:49;;;;;;;;;;;17.50;44.10;;;;;;1570285;74;639;-70
2024/02/04 01:11:53;;;;;;;;;;;17.50;44.10;;;;;;1574156;74;1154;-69
2024/02/04 01:13:54;;;;;;;;;;;17.50;44.10;;;;;;1569755;74;806;-70
2024/02/04 01:15:56;;;;;;;;;;;17.50;44.10;;;;;;1569119;74;695;-70
2024/02/04 01:17:58;;;;;;;;;;;17.50;44.10;;;;;;1569160;74;1931;-68
2024/02/04 01:20:00;;;;;;;;;;;17.50;44.10;;;;;;1571934;74;770;-68
2024/02/04 01:22:02;;;;;;;;;;;17.50;44.10;;;;;;1568247;74;1194;-69
2024/02/04 01:24:04;;;;;;;;;;;17.50;44.10;;;;;;1572676;74;663;-69
2024/02/04 01:26:06;;;;;;;;;;;17.50;44.10;;;;;;1571630;74;733;-69
2024/02/04 01:28:08;;;;;;;;;;;17.50;44.10;;;;;;1563920;74;756;-69
2024/02/04 01:30:10;;;;;;;;;;;17.50;44.10;;;;;;1569886;74;725;-70
2024/02/04 01:32:12;;;;;;;;;;;17.50;44.10;;;;;;1571847;74;1247;-69
2024/02/04 01:34:14;;;;;;;;;;;17.50;44.10;;;;;;1572837;74;724;-70
2024/02/04 01:36:15;;;;;;;;;;;17.50;44.10;;;;;;1569378;74;695;-69
2024/02/04 01:38:17;;;;;;;;;;;17.50;44.10;;;;;;1581352;74;1930;-70
2024/02/04 01:40:19;;;;;;;;;;;17.50;44.10;;;;;;1569042;74;718;-70
2024/02/04 01:42:21;;;;;;;;;;;17.50;44.20;;;;;;1569347;74;1113;-69
2024/02/04 01:44:23;;;;;;;;;;;17.50;44.10;;;;;;1579260;74;740;-70
2024/02/04 01:46:25;;;;;;;;;;;17.50;44.10;;;;;;1573750;74;612;-70
2024/02/04 01:48:27;;;;;;;;;;;17.50;44.10;;;;;;1573341;74;638;-68
2024/02/04 01:50:29;;;;;;;;;;;17.50;44.10;;;;;;1570516;74;817;-70
2024/02/04 01:52:34;;;;;;;;;;;17.50;44.10;;;;;;1575255;74;1144;-70
2024/02/04 01:54:36;;;;;;;;;;;17.50;44.10;;;;;;1573664;74;726;-68
2024/02/04 01:56:38;;;;;;;;;;;17.50;44.10;;;;;;1573015;74;1937;-69
2024/02/04 01:58:40;;;;;;;;;;;17.50;44.10;;;;;;1569586;74;747;-68
2024/02/04 02:00:42;;;;;;;;;;;17.50;44.10;;;;;;1575738;74;587;-69
2024/02/04 02:02:44;;;;;;;;;;;17.50;44.10;;;;;;1573315;74;1146;-70
2024/02/04 02:04:45;;;;;;;;;;;17.50;44.10;;;;;;1566936;74;809;-69
2024/02/04 02:06:47;;;;;;;;;;;17.50;44.10;;;;;;1574265;74;657;-70
2024/02/04 02:08:50;;;;;;;;;;;17.50;44.10;;;;;;1565472;74;686;-68
2024/02/04 02:10:52;;;;;;;;;;;17.50;44.10;;;;;;1568152;74;656;-70
2024/02/04 02:12:55;;;;;;;;;;;17.50;44.10;;;;;;1567852;74;1190;-69
2024/02/04 02:14:58;;;;;;;;;;;17.50;44.00;;;;;;1570623;74;1342;-70
2024/02/04 02:17:03;;;;;;;;;;;17.50;44.00;;;;;;1568113;74;1932;-70
2024/02/04 02:19:06;;;;;;;;;;;17.50;44.00;;;;;;1569932;74;1474;-70
2024/02/04 02:21:18;;;;;;;;;;;17.50;44.00;;;;;;1571585;74;1193;-70
2024/02/04 02:23:22;;;;;;;;;;;17.50;44.00;;;;;;1572031;74;1103;-70
2024/02/04 02:25:24;;;;;;;;;;;17.50;44.10;;;;;;1569172;74;1087;-69
2024/02/04 02:27:26;;;;;;;;;;;17.50;44.10;;;;;;1574913;74;543;-70
2024/02/04 02:29:28;;;;;;;;;;;17.50;44.10;;;;;;1566311;74;728;-70
2024/02/04 02:31:30;;;;;;;;;;;17.50;44.00;;;;;;1571426;74;716;-70
2024/02/04 02:33:32;;;;;;;;;;;17.50;44.00;;;;;;1569500;74;1221;-70
2024/02/04 02:35:34;;;;;;;;;;;17.50;44.10;;;;;;1569106;74;630;-70
2024/02/04 02:37:44;;;;;;;;;;;17.50;44.10;;;;;;1568125;74;1927;-70
2024/02/04 02:39:46;;;;;;;;;;;17.50;44.10;;;;;;1563718;74;687;-70
2024/02/04 02:41:50;;;;;;;;;;;17.50;44.00;;;;;;1572312;74;690;-70
2024/02/04 02:43:52;;;;;;;;;;;17.50;44.10;;;;;;1572685;74;713;-69
2024/02/04 02:45:54;;;;;;;;;;;17.50;44.10;;;;;;1574936;74;673;-70
2024/02/04 02:47:56;;;;;;;;;;;17.50;44.10;;;;;;1567805;74;758;-67
2024/02/04 02:49:58;;;;;;;;;;;17.50;44.10;;;;;;1571511;74;668;-70
2024/02/04 02:52:00;;;;;;;;;;;17.50;44.10;;;;;;1573085;74;1115;-69
2024/02/04 02:54:02;;;;;;;;;;;17.50;44.10;;;;;;1571822;74;752;-69
2024/02/04 02:56:04;;;;;;;;;;;17.50;44.10;;;;;;1565616;74;740;-70
2024/02/04 02:58:05;;;;;;;;;;;17.50;44.10;;;;;;1580779;74;1926;-70
2024/02/04 03:00:09;;;;;;;;;;;17.50;44.10;;;;;;1572470;74;707;-70
2024/02/04 03:02:11;;;;;;;;;;;17.50;44.10;;;;;;1564750;74;1150;-70
2024/02/04 03:04:13;;;;;;;;;;;17.50;44.00;;;;;;1571395;74;685;-70
2024/02/04 03:06:14;;;;;;;;;;;17.50;44.10;;;;;;1571511;74;786;-69
2024/02/04 03:08:17;;;;;;;;;;;17.50;44.00;;;;;;1574482;74;1562;-70
2024/02/04 03:10:19;;;;;;;;;;;17.50;44.00;;;;;;1570609;74;719;-69
2024/02/04 03:12:21;;;;;;;;;;;17.50;44.00;;;;;;1571464;74;1151;-70
2024/02/04 03:14:22;;;;;;;;;;;17.50;44.10;;;;;;1568377;74;651;-70
2024/02/04 03:16:24;;;;;;;;;;;17.50;44.10;;;;;;1571703;74;701;-70
2024/02/04 03:18:26;;;;;;;;;;;17.50;44.10;;;;;;1578289;74;1942;-70
2024/02/04 03:20:28;;;;;;;;;;;17.50;44.10;;;;;;1569689;74;715;-69
2024/02/04 03:22:30;;;;;;;;;;;17.50;44.10;;;;;;1565274;74;1117;-69
2024/02/04 03:24:32;;;;;;;;;;;17.50;44.10;;;;;;1567565;74;685;-70
2024/02/04 03:26:34;;;;;;;;;;;17.50;44.10;;;;;;1566268;74;739;-69
2024/02/04 03:28:36;;;;;;;;;;;17.50;44.00;;;;;;1574527;74;597;-69
2024/02/04 03:30:37;;;;;;;;;;;17.50;44.00;;;;;;1570601;74;677;-70
2024/02/04 03:32:39;;;;;;;;;;;17.50;44.10;;;;;;1571188;74;1136;-68
2024/02/04 03:34:44;;;;;;;;;;;17.50;44.10;;;;;;1574540;74;780;-70
2024/02/04 03:36:46;;;;;;;;;;;17.50;44.10;;;;;;1570986;74;766;-69
2024/02/04 03:38:48;;;;;;;;;;;17.50;44.10;;;;;;1572161;74;1939;-70
2024/02/04 03:40:50;;;;;;;;;;;17.50;44.10;;;;;;1570712;74;639;-69
2024/02/04 03:42:52;;;;;;;;;;;17.50;44.00;;;;;;1573643;73;1142;-70
2024/02/04 03:44:54;;;;;;;;;;;17.50;44.00;;;;;;1575145;74;706;-69
2024/02/04 03:46:56;;;;;;;;;;;17.50;44.10;;;;;;1570901;74;833;-69
2024/02/04 03:48:58;;;;;;;;;;;17.50;44.00;;;;;;1573885;74;654;-70
2024/02/04 03:51:00;;;;;;;;;;;17.50;44.00;;;;;;1568670;74;586;-70
2024/02/04 03:53:02;;;;;;;;;;;17.50;44.00;;;;;;1565484;74;1161;-69
2024/02/04 03:55:04;;;;;;;;;;;17.50;44.00;;;;;;1565140;74;711;-70
2024/02/04 03:57:06;;;;;;;;;;;17.60;44.00;;;;;;1561859;74;840;-70
2024/02/04 03:59:10;;;;;;;;;;;17.50;44.10;;;;;;1575888;73;1929;-68
2024/02/04 04:01:12;;;;;;;;;;;17.50;44.00;;;;;;1575781;74;1621;-70
2024/02/04 04:03:14;;;;;;;;;;;17.50;44.00;;;;;;1567687;74;1192;-70
2024/02/04 04:05:15;;;;;;;;;;;17.50;44.00;;;;;;1571496;74;716;-69
2024/02/04 04:07:17;;;;;;;;;;;17.50;44.00;;;;;;1571615;74;1417;-69
2024/02/04 04:09:19;;;;;;;;;;;17.50;44.00;;;;;;1577055;74;696;-69
2024/02/04 04:11:21;;;;;;;;;;;17.50;44.10;;;;;;1568867;74;806;-69
2024/02/04 04:13:23;;;;;;;;;;;17.50;44.10;;;;;;1569962;74;1141;-71
2024/02/04 04:15:25;;;;;;;;;;;17.50;44.00;;;;;;1570477;74;743;-68
2024/02/04 04:17:27;;;;;;;;;;;17.50;44.00;;;;;;1569450;74;771;-70
2024/02/04 04:19:28;;;;;;;;;;;17.50;44.10;;;;;;1572320;74;651;-69
2024/02/04 04:21:30;;;;;;;;;;;17.40;43.90;;;;;;1575276;74;775;-70
2024/02/04 04:23:32;;;;;;;;;;;17.50;44.00;;;;;;1569771;74;1132;-70
2024/02/04 04:25:34;;;;;;;;;;;17.50;44.00;;;;;;1571895;74;774;-70
2024/02/04 04:27:36;;;;;;;;;;;17.50;44.00;;;;;;1570046;74;726;-70
2024/02/04 04:29:38;;;;;;;;;;;17.50;44.00;;;;;;1571146;74;693;-68
2024/02/04 04:31:42;;;;;;;;;;;17.50;44.00;;;;;;1570205;74;616;-70
2024/02/04 04:33:43;;;;;;;;;;;17.50;44.00;;;;;;1573565;74;1147;-70
2024/02/04 04:35:45;;;;;;;;;;;17.50;44.00;;;;;;1567432;74;606;-70
2024/02/04 04:37:47;;;;;;;;;;;17.50;44.00;;;;;;1576446;74;1963;-70
2024/02/04 04:39:54;;;;;;;;;;;17.50;44.00;;;;;;1574593;74;684;-69
2024/02/04 04:41:53;;;;;;;;;;;17.50;44.00;;;;;;1568147;74;1259;-69
2024/02/04 04:43:54;;;;;;;;;;;17.50;44.00;;;;;;1568091;74;702;-70
2024/02/04 04:45:56;;;;;;;;;;;17.50;44.00;;;;;;1571418;74;687;-70
2024/02/04 04:47:58;;;;;;;;;;;17.50;44.00;;;;;;1578607;74;766;-70
2024/02/04 04:50:00;;;;;;;;;;;17.40;43.90;;;;;;1574543;74;845;-68
2024/02/04 04:52:02;;;;;;;;;;;17.40;43.90;;;;;;1567144;74;1154;-69
2024/02/04 04:54:04;;;;;;;;;;;17.50;43.90;;;;;;1566329;74;740;-70
2024/02/04 04:56:06;;;;;;;;;;;17.50;44.00;;;;;;1565323;74;685;-70
2024/02/04 04:58:08;;;;;;;;;;;17.50;43.90;;;;;;1581722;74;1950;-70
2024/02/04 05:00:11;;;;;;;;;;;17.50;44.00;;;;;;1569958;74;740;-69
2024/02/04 05:02:13;;;;;;;;;;;17.50;44.00;;;;;;1570335;74;1176;-69
2024/02/04 05:04:18;;;;;;;;;;;17.50;44.00;;;;;;1573241;74;539;-71
2024/02/04 05:06:20;;;;;;;;;;;17.50;44.00;;;;;;1574456;74;808;-68
2024/02/04 05:08:22;;;;;;;;;;;17.40;43.90;;;;;;1571893;74;1357;-69
2024/02/04 05:10:24;;;;;;;;;;;17.50;44.00;;;;;;1567134;74;717;-70
2024/02/04 05:12:26;;;;;;;;;;;17.50;44.00;;;;;;1562467;74;1189;-70
2024/02/04 05:14:28;;;;;;;;;;;17.50;44.00;;;;;;1574428;74;743;-69
2024/02/04 05:16:30;;;;;;;;;;;17.50;44.00;;;;;;1569727;74;649;-69
2024/02/04 05:18:32;;;;;;;;;;;17.50;44.00;;;;;;1576406;74;1930;-69
2024/02/04 05:20:34;;;;;;;;;;;17.50;44.00;;;;;;1563912;74;750;-69
2024/02/04 05:22:36;;;;;;;;;;;17.60;44.00;;;;;;1572640;74;1139;-70
2024/02/04 05:24:38;;;;;;;;;;;17.50;44.00;;;;;;1566886;74;587;-69
2024/02/04 05:26:40;;;;;;;;;;;17.40;43.90;;;;;;1570928;74;787;-69
2024/02/04 05:28:42;;;;;;;;;;;17.50;44.00;;;;;;1575807;74;696;-68
2024/02/04 05:30:44;;;;;;;;;;;17.50;44.00;;;;;;1574093;74;775;-70
2024/02/04 05:32:45;;;;;;;;;;;17.50;44.00;;;;;;1575313;74;1114;-70
2024/02/04 05:34:48;;;;;;;;;;;17.50;44.00;;;;;;1574628;74;541;-70
2024/02/04 05:36:50;;;;;;;;;;;17.50;44.00;;;;;;1569482;74;753;-70
2024/02/04 05:38:52;;;;;;;;;;;17.50;44.00;;;;;;1575926;74;1922;-70
2024/02/04 05:40:54;;;;;;;;;;;17.40;43.80;;;;;;1568442;74;748;-69
2024/02/04 05:42:55;;;;;;;;;;;17.50;44.00;;;;;;1571142;74;1127;-69
2024/02/04 05:44:58;;;;;;;;;;;17.50;43.90;;;;;;1582548;74;711;-69
2024/02/04 05:47:00;;;;;;;;;;;17.40;43.90;;;;;;1569146;74;822;-70
2024/02/04 05:49:02;;;;;;;;;;;17.50;44.00;;;;;;1574443;74;742;-69
2024/02/04 05:51:03;;;;;;;;;;;17.50;43.90;;;;;;1568133;74;728;-69
2024/02/04 05:53:05;;;;;;;;;;;17.50;44.00;;;;;;1573835;74;1129;-69
2024/02/04 05:55:07;;;;;;;;;;;17.50;44.00;;;;;;1569366;74;716;-69
2024/02/04 05:57:11;;;;;;;;;;;17.50;43.90;;;;;;1571324;74;753;-68
2024/02/04 05:59:13;;;;;;;;;;;17.50;44.00;;;;;;1576246;74;1903;-70
2024/02/04 06:01:15;;;;;;;;;;;17.50;43.90;;;;;;1566569;74;737;-70
2024/02/04 06:03:17;;;;;;;;;;;17.50;44.00;;;;;;1576198;74;1120;-71
2024/02/04 06:05:19;;;;;;;;;;;17.50;43.90;;;;;;1569230;74;748;-70
2024/02/04 06:07:21;;;;;;;;;;;17.50;43.90;;;;;;1573842;74;1444;-69
2024/02/04 06:09:23;;;;;;;;;;;17.50;43.90;;;;;;1576343;74;777;-69
2024/02/04 06:11:25;;;;;;;;;;;17.50;44.00;;;;;;1570579;74;728;-70
2024/02/04 06:13:27;;;;;;;;;;;17.50;43.90;;;;;;1570656;74;1197;-70
2024/02/04 06:15:28;;;;;;;;;;;17.50;43.90;;;;;;1572424;74;708;-69
2024/02/04 06:17:30;;;;;;;;;;;17.40;43.80;;;;;;1569301;74;695;-70
2024/02/04 06:19:32;;;;;;;;;;;17.50;43.90;;;;;;1570583;74;1941;-70
2024/02/04 06:21:34;;;;;;;;;;;17.50;43.90;;;;;;1566752;74;675;-70
2024/02/04 06:23:36;;;;;;;;;;;17.50;44.00;;;;;;1566222;74;1112;-69
2024/02/04 06:25:38;;;;;;;;;;;17.40;43.80;;;;;;1535114;76;1271;-70
2024/02/04 06:27:40;;;;;;;;;;;17.50;43.90;;;;;;1500204;77;751;-70
2024/02/04 06:29:42;;;;;;;;;;;17.50;43.90;;;;;;1496716;77;682;-69
2024/02/04 06:31:47;;;;;;;;;;;17.50;44.00;;;;;;1500255;77;706;-70
2024/02/04 06:33:49;;;;;;;;;;;17.50;44.00;;;;;;1500019;77;1138;-70
2024/02/04 06:35:51;;;;;;;;;;;17.40;43.80;;;;;;1500487;77;638;-68
2024/02/04 06:37:53;;;;;;;;;;;17.50;43.90;;;;;;1503034;77;724;-70
2024/02/04 06:39:55;;;;;;;;;;;17.50;44.00;;;;;;1499797;77;1922;-70
2024/02/04 06:41:57;;;;;;;;;;;17.50;44.00;;;;;;1522120;76;1159;-69
2024/02/04 06:43:58;;;;;;;;;;;17.50;44.00;;;;;;1521377;76;692;-69
2024/02/04 06:46:00;;;;;;;;;;;17.50;44.00;;;;;;1524172;76;759;-69
2024/02/04 06:48:02;;;;;;;;;;;17.50;44.00;;;;;;1527893;76;757;-69
2024/02/04 06:50:05;;;;;;;;;;;17.50;44.00;;;;;;1525014;76;750;-69
2024/02/04 06:52:07;;;;;;;;;;;17.50;44.00;;;;;;1519709;76;1150;-70
2024/02/04 06:54:09;;;;;;;;;;;17.50;44.00;;;;;;1526185;76;653;-69
2024/02/04 06:56:11;;;;;;;;;;;17.50;44.00;;;;;;1504837;77;697;-69
2024/02/04 06:58:13;;;;;;;;;;;17.50;44.00;;;;;;1526031;76;726;-70
2024/02/04 07:00:15;;;;;;;;;;;17.50;44.00;;;;;;1525597;76;1942;-70
2024/02/04 07:02:17;;;;;;;;;;;17.50;44.00;;;;;;1523153;76;1138;-70
2024/02/04 07:04:21;;;;;;;;;;;17.50;44.00;;;;;;1530504;76;772;-69
2024/02/04 07:06:23;;;;;;;;;;;17.50;44.00;;;;;;1524244;76;1380;-70
2024/02/04 07:08:25;;;;;;;;;;;17.50;44.00;;;;;;1525175;76;1386;-70
2024/02/04 07:10:26;;;;;;;;;;;17.50;44.00;;;;;;1523664;76;676;-70
2024/02/04 07:12:28;;;;;;;;;;;17.50;44.00;;;;;;1521096;76;1165;-70
2024/02/04 07:14:30;;;;;;;;;;;17.50;44.00;;;;;;1524786;76;825;-71
2024/02/04 07:16:32;;;;;;;;;;;17.50;44.00;;;;;;1525261;76;723;-68
2024/02/04 07:18:34;;;;;;;;;;;17.50;44.10;;;;;;1527590;76;1932;-70
2024/02/04 07:20:36;;;;;;;;;;;17.50;44.00;;;;;;1523864;76;723;-68
2024/02/04 07:22:38;;;;;;;;;;;17.50;44.00;;;;;;1524485;76;1161;-69
2024/02/04 07:24:39;;;;;;;;;;;17.50;44.00;;;;;;1523142;76;735;-69
2024/02/04 07:26:41;;;;;;;;;;;17.50;44.00;;;;;;1518803;76;759;-69
2024/02/04 07:28:43;;;;;;;;;;;17.40;43.90;;;;;;1526988;76;657;-69
2024/02/04 07:30:45;;;;;;;;;;;17.50;44.00;;;;;;1524948;76;678;-69
2024/02/04 07:32:47;;;;;;;;;;;17.10;43.70;;;;;;1521095;76;1146;-69
2024/02/04 07:34:49;;;;;;;;;;;17.50;44.00;;;;;;1524617;76;681;-70
2024/02/04 07:36:52;;;;;;;;;;;17.50;44.00;;;;;;1525582;76;727;-69
2024/02/04 07:38:54;;;;;;;;;;;17.40;43.80;;;;;;1530051;76;1906;-68
2024/02/04 07:40:58;;;;;;;;;;;17.50;43.90;;;;;;1521628;76;751;-70
2024/02/04 07:42:59;;;;;;;;;;;17.50;43.90;;;;;;1522977;76;1232;-69
2024/02/04 07:45:08;;;;;;;;;;;17.40;43.90;;;;;;1526093;76;715;-68
2024/02/04 07:47:05;;;;;;;;;;;17.50;43.90;;;;;;1521983;76;1111;-70
2024/02/04 07:49:07;;;;;;;;;;;17.50;44.00;;;;;;1527485;76;723;-70
2024/02/04 07:51:09;;;;;;;;;;;17.50;44.00;;;;;;1523552;76;720;-69
2024/02/04 07:53:11;;;;;;;;;;;17.50;43.90;;;;;;1525365;76;1151;-70
2024/02/04 07:55:13;;;;;;;;;;;17.50;44.00;;;;;;1524276;76;719;-70
2024/02/04 07:57:15;;;;;;;;;;;17.50;43.90;;;;;;1518834;76;786;-69
2024/02/04 07:59:17;;;;;;;;;;;17.50;44.00;;;;;;1525493;76;1922;-69
2024/02/04 08:01:19;;;;;;;;;;;17.50;43.90;;;;;;1522745;76;672;-70
2024/02/04 08:03:21;;;;;;;;;;;17.50;43.90;;;;;;1528037;76;1149;-70
2024/02/04 08:05:23;;;;;;;;;;;17.50;43.90;;;;;;1523215;76;709;-69
2024/02/04 08:07:24;;;;;;;;;;;17.50;43.90;;;;;;1523376;76;1551;-69
2024/02/04 08:09:26;;;;;;;;;;;17.40;43.80;;;;;;1524485;76;788;-70
2024/02/04 08:11:28;;;;;;;;;;;17.50;44.00;;;;;;1521895;76;781;-70
2024/02/04 08:13:30;;;;;;;;;;;17.50;43.90;;;;;;1525335;76;1081;-69
2024/02/04 08:15:32;;;;;;;;;;;17.50;44.00;;;;;;1522919;76;671;-70
2024/02/04 08:17:34;;;;;;;;;;;17.50;43.90;;;;;;1524760;76;691;-70
2024/02/04 08:19:36;;;;;;;;;;;17.50;44.00;;;;;;1524825;76;1932;-69
2024/02/04 08:21:38;;;;;;;;;;;17.50;43.90;;;;;;1526269;76;825;-69
2024/02/04 08:23:40;;;;;;;;;;;17.50;44.00;;;;;;1524823;76;1215;-71
2024/02/04 08:25:42;;;;;;;;;;;17.40;43.80;;;;;;1523627;76;754;-69
2024/02/04 08:27:44;;;;;;;;;;;17.40;43.80;;;;;;1523097;76;744;-69
2024/02/04 08:29:45;;;;;;;;;;;17.50;43.90;;;;;;1523248;76;778;-70
2024/02/04 08:31:47;;;;;;;;;;;17.50;43.90;;;;;;1524837;76;715;-69
2024/02/04 08:33:49;;;;;;;;;;;17.50;43.90;;;;;;1524201;76;1149;-70
2024/02/04 08:35:51;;;;;;;;;;;17.50;43.90;;;;;;1524869;76;647;-71
2024/02/04 08:37:53;;;;;;;;;;;17.40;43.80;;;;;;1525570;76;710;-69
2024/02/04 08:39:55;;;;;;;;;;;17.50;44.00;;;;;;1523844;76;1964;-69
2024/02/04 08:41:57;;;;;;;;;;;17.50;44.00;;;;;;1525570;76;1103;-70
2024/02/04 08:43:59;;;;;;;;;;;17.50;43.90;;;;;;1521727;76;808;-69
2024/02/04 08:46:01;;;;;;;;;;;17.50;43.90;;;;;;1524189;76;809;-70
2024/02/04 08:48:03;;;;;;;;;;;17.50;43.90;;;;;;1529612;76;713;-69
2024/02/04 08:50:05;;;;;;;;;;;17.50;43.90;;;;;;1523774;76;688;-70
2024/02/04 08:52:07;;;;;;;;;;;17.50;43.90;;;;;;1524098;76;1143;-70
2024/02/04 08:54:09;;;;;;;;;;;17.50;43.90;;;;;;1525619;76;732;-70
2024/02/04 08:56:11;;;;;;;;;;;17.50;43.90;;;;;;1518648;76;735;-69
2024/02/04 08:58:13;;;;;;;;;;;17.40;43.80;;;;;;1524812;76;868;-69
2024/02/04 09:00:15;;;;;;;;;;;17.50;43.90;;;;;;1525195;76;1932;-69
2024/02/04 09:02:17;;;;;;;;;;;17.50;43.90;;;;;;1523132;76;1229;-69
2024/02/04 09:04:19;;;;;;;;;;;17.50;43.90;;;;;;1527170;76;751;-70
2024/02/04 09:06:21;;;;;;;;;;;17.50;43.90;;;;;;1524594;76;592;-69
2024/02/04 09:08:23;;;;;;;;;;;17.50;43.90;;;;;;1525172;76;1496;-70
2024/02/04 09:10:24;;;;;;;;;;;17.40;43.80;;;;;;1523358;76;749;-70
2024/02/04 09:12:26;;;;;;;;;;;17.50;43.90;;;;;;1521311;76;1125;-69
2024/02/04 09:14:28;;;;;;;;;;;17.50;43.90;;;;;;1523486;76;678;-70
2024/02/04 09:16:30;;;;;;;;;;;17.50;43.90;;;;;;1525768;76;711;-70
2024/02/04 09:18:32;;;;;;;;;;;17.40;43.80;;;;;;1525740;76;597;-68
2024/02/04 09:20:34;;;;;;;;;;;17.50;43.90;;;;;;1522571;76;1929;-68
2024/02/04 09:22:36;;;;;;;;;;;17.50;43.90;;;;;;1524443;76;1173;-69
2024/02/04 09:24:38;;;;;;;;;;;17.50;43.90;;;;;;1523354;76;644;-70
2024/02/04 09:26:39;;;;;;;;;;;17.50;43.80;;;;;;1524237;76;813;-69
2024/02/04 09:28:41;;;;;;;;;;;17.50;43.90;;;;;;1524151;76;739;-68
2024/02/04 09:30:43;;;;;;;;;;;17.50;43.90;;;;;;1530333;76;741;-70
2024/02/04 09:32:46;;;;;;;;;;;17.50;43.90;;;;;;1522369;76;1138;-69
2024/02/04 09:34:48;;;;;;;;;;;17.50;43.90;;;;;;1524776;76;599;-70
2024/02/04 09:36:53;;;;;;;;;;;17.50;43.90;;;;;;1522534;76;770;-69
2024/02/04 09:38:54;;;;;;;;;;;17.50;43.90;;;;;;1524923;76;1336;-70
2024/02/04 09:40:56;;;;;;;;;;;17.40;43.80;;;;;;1520625;76;1944;-70
2024/02/04 09:42:58;;;;;;;;;;;17.40;43.80;;;;;;1522185;76;1092;-69
2024/02/04 09:45:00;;;;;;;;;;;17.50;43.80;;;;;;1526161;76;768;-70
2024/02/04 09:47:02;;;;;;;;;;;17.40;43.70;;;;;;1523736;76;727;-69
2024/02/04 09:49:04;;;;;;;;;;;17.50;43.90;;;;;;1527661;76;742;-68
2024/02/04 09:51:07;;;;;;;;;;;17.40;43.70;;;;;;1526127;76;690;-70
2024/02/04 09:53:09;;;;;;;;;;;17.50;43.90;;;;;;1529664;76;1138;-69
2024/02/04 09:55:11;;;;;;;;;;;17.50;43.90;;;;;;1525803;76;736;-70
2024/02/04 09:57:14;;;;;;;;;;;17.50;43.90;;;;;;1517929;76;682;-70
2024/02/04 09:59:16;;;;;;;;;;;17.50;43.80;;;;;;1525567;76;809;-68
2024/02/04 10:01:18;;;;;;;;;;;17.50;43.90;;;;;;1521971;76;1940;-70
2024/02/04 10:03:21;;;;;;;;;;;17.40;43.70;;;;;;1524910;76;1128;-70
2024/02/04 10:05:23;;;;;;;;;;;17.40;43.70;;;;;;1524876;76;785;-68
2024/02/04 10:07:25;;;;;;;;;;;17.40;43.80;;;;;;1522811;76;1504;-70
2024/02/04 10:09:26;;;;;;;;;;;17.40;43.80;;;;;;1526191;76;800;-69
2024/02/04 10:11:28;;;;;;;;;;;17.50;43.90;;;;;;1521029;76;539;-69
2024/02/04 10:13:30;;;;;;;;;;;17.50;43.90;;;;;;1523552;76;1118;-69
2024/02/04 10:15:32;;;;;;;;;;;17.50;43.90;;;;;;1523027;76;549;-69
2024/02/04 10:17:34;;;;;;;;;;;17.50;43.90;;;;;;1523927;76;726;-67
2024/02/04 10:19:36;;;;;;;;;;;17.50;43.90;;;;;;1526717;76;680;-70
2024/02/04 10:21:38;;;;;;;;;;;17.50;43.80;;;;;;1524305;76;1941;-69
2024/02/04 10:23:39;;;;;;;;;;;17.50;43.90;;;;;;1526230;76;1131;-70
2024/02/04 10:25:41;;;;;;;;;;;17.50;43.90;;;;;;1522920;76;726;-68
2024/02/04 10:27:45;;;;;;;;;;;17.50;43.90;;;;;;1519713;76;731;-69
2024/02/04 10:29:47;;;;;;;;;;;17.50;43.90;;;;;;1526744;76;1603;-70
2024/02/04 10:31:49;;;;;;;;;;;17.50;43.90;;;;;;1525264;76;583;-69
2024/02/04 10:33:51;;;;;;;;;;;17.50;43.90;;;;;;1522868;76;1222;-70
2024/02/04 10:35:53;;;;;;;;;;;17.50;43.90;;;;;;1524309;76;744;-70
2024/02/04 10:37:55;;;;;;;;;;;17.50;43.80;;;;;;1526070;76;774;-70
2024/02/04 10:39:57;;;;;;;;;;;17.50;43.90;;;;;;1525472;76;1940;-69
2024/02/04 10:42:00;;;;;;;;;;;17.50;43.90;;;;;;1521874;76;1081;-68
2024/02/04 10:44:03;;;;;;;;;;;17.50;43.90;;;;;;1525029;76;722;-70
2024/02/04 10:46:07;;;;;;;;;;;17.50;43.90;;;;;;1523622;76;751;-69
2024/02/04 10:48:09;;;;;;;;;;;17.50;43.80;;;;;;1527348;76;1540;-70
2024/02/04 10:50:11;;;;;;;;;;;17.50;43.90;;;;;;1523908;76;770;-69
2024/02/04 10:52:12;;;;;;;;;;;17.40;43.70;;;;;;1525493;76;1146;-70
2024/02/04 10:54:18;;;;;;;;;;;17.50;43.90;;;;;;1525791;76;735;-70
2024/02/04 10:56:23;;;;;;;;;;;17.50;43.90;;;;;;1518463;76;748;-70
2024/02/04 10:58:25;;;;;;;;;;;17.50;43.90;;;;;;1525546;76;747;-69
2024/02/04 11:00:27;;;;;;;;;;;17.50;43.90;;;;;;1521804;76;1932;-69
2024/02/04 11:02:28;;;;;;;;;;;17.50;43.80;;;;;;1524274;76;1133;-70
2024/02/04 11:04:31;;;;;;;;;;;17.50;43.80;;;;;;1524385;76;742;-70
2024/02/04 11:06:33;;;;;;;;;;;17.50;43.80;;;;;;1522422;76;686;-69
2024/02/04 11:08:35;;;;;;;;;;;17.50;43.80;;;;;;1525118;76;1583;-70
2024/02/04 11:10:37;;;;;;;;;;;17.50;43.80;;;;;;1521754;76;729;-69
2024/02/04 11:12:39;;;;;;;;;;;17.50;43.80;;;;;;1523461;76;1134;-69
2024/02/04 11:14:41;;;;;;;;;;;17.50;43.90;;;;;;1525987;76;875;-69
2024/02/04 11:16:45;;;;;;;;;;;17.50;43.90;;;;;;1524256;76;765;-69
2024/02/04 11:18:51;;;;;;;;;;;17.40;43.70;;;;;;1522642;76;1509;-69
2024/02/04 11:21:13;;;;;;;;;;;17.50;43.80;;;;;;1522676;76;1928;-70
2024/02/04 11:23:17;;;;;;;;;;;17.50;43.80;;;;;;1469673;79;1158;-71
2024/02/04 11:25:23;;;;;;;;;;;17.40;43.70;;;;;;1466828;79;2027;-70
2024/02/04 11:27:25;;;;;;;;;;;17.50;43.80;;;;;;1466976;79;1838;-68
2024/02/04 11:29:27;;;;;;;;;;;17.50;43.90;;;;;;1501238;77;974;-71
2024/02/04 11:31:29;;;;;;;;;;;17.50;43.90;;;;;;1515521;77;704;-70
2024/02/04 11:33:31;;;;;;;;;;;17.50;43.90;;;;;;1509236;77;1146;-69
2024/02/04 11:35:36;;;;;;;;;;;17.50;43.90;;;;;;1493637;78;780;-70
2024/02/04 11:37:41;;;;;;;;;;;17.50;43.90;;;;;;1514745;77;814;-70
2024/02/04 11:39:43;;;;;;;;;;;17.50;43.80;;;;;;1515728;77;1510;-70
2024/02/04 11:41:46;;;;;;;;;;;17.50;43.90;;;;;;1510851;77;1929;-70
2024/02/04 11:43:50;;;;;;;;;;;17.50;43.80;;;;;;1508884;77;1064;-70
2024/02/04 11:45:53;;;;;;;;;;;17.50;43.90;;;;;;1517041;77;1832;-70
2024/02/04 11:47:57;;;;;;;;;;;17.50;43.80;;;;;;1517180;77;708;-71
2024/02/04 11:49:58;;;;;;;;;;;17.50;43.70;;;;;;1515522;77;1734;-71
2024/02/04 11:52:00;;;;;;;;;;;17.50;43.80;;;;;;1517801;77;1149;-70
2024/02/04 11:54:04;;;;;;;;;;;17.50;43.80;;;;;;1507643;77;738;-70
2024/02/04 11:56:06;;;;;;;;;;;17.50;43.80;;;;;;1508912;77;1490;-70
2024/02/04 11:58:12;;;;;;;;;;;17.50;43.90;;;;;;1514379;77;658;-70
2024/02/04 12:00:12;;;;;;;;;;;17.50;43.80;;;;;;1514077;77;1130;-69
2024/02/04 12:02:15;;;;;;;;;;;17.50;43.80;;;;;;1511058;77;1939;-70
2024/02/04 12:04:17;;;;;;;;;;;17.50;43.90;;;;;;1515776;77;676;-69
2024/02/04 12:06:19;;;;;;;;;;;17.50;43.80;;;;;;1513479;77;732;-71
2024/02/04 12:08:21;;;;;;;;;;;17.50;43.80;;;;;;1511488;77;1500;-71